sensor_id;sensor_type;location;lat;lon;timestamp;pressure;altitude;pressure_sealevel;temperature;humidity
44079;BME280;29744;49.078;12.878;2023-12-20T00:03:09;96268.03;;;14.67;35.10
44079;BME280;29744;49.078;12.878;2023-12-20T00:08:09;96271.38;;;14.64;34.73
44079;BME280;29744;49.078;12.878;2023-12-20T00:13:10;96251.69;;;14.63;35.32
44079;BME280;29744;49.078;12.878;2023-12-20T00:18:11;96249.66;;;14.60;35.15
44079;BME280;29744;49.078;12.878;2023-12-20T00:23:11;96247.59;;;14.57;35.30
44079;BME280;29744;49.078;12.878;2023-12-20T00:28:11;96243.31;;;14.56;35.41
44079;BME280;29744;49.078;12.878;2023-12-20T00:33:12;96230.94;;;14.55;35.44
44079;BME280;29744;49.078;12.878;2023-12-20T00:38:12;96241.63;;;14.52;35.29
44079;BME280;29744;49.078;12.878;2023-12-20T00:43:13;96248.13;;;14.50;35.50
44079;BME280;29744;49.078;12.878;2023-12-20T00:48:13;96264.66;;;14.49;35.26
44079;BME280;29744;49.078;12.878;2023-12-20T00:53:13;96247.19;;;14.46;35.06
44079;BME280;29744;49.078;12.878;2023-12-20T00:58:14;96241.34;;;14.44;35.40
44079;BME280;29744;49.078;12.878;2023-12-20T01:03:15;96257.53;;;14.44;35.31
44079;BME280;29744;49.078;12.878;2023-12-20T01:08:15;96246.28;;;14.42;35.56
44079;BME280;29744;49.078;12.878;2023-12-20T01:13:16;96239.63;;;14.40;35.58
44079;BME280;29744;49.078;12.878;2023-12-20T01:18:16;96240.28;;;14.37;35.58
44079;BME280;29744;49.078;12.878;2023-12-20T01:23:16;96226.78;;;14.37;35.56
44079;BME280;29744;49.078;12.878;2023-12-20T01:28:17;96221.72;;;14.35;35.28
44079;BME280;29744;49.078;12.878;2023-12-20T01:33:17;96229.34;;;14.33;35.46
44079;BME280;29744;49.078;12.878;2023-12-20T01:38:17;96208.09;;;14.32;35.61
44079;BME280;29744;49.078;12.878;2023-12-20T01:43:20;96218.88;;;14.32;35.71
44079;BME280;29744;49.078;12.878;2023-12-20T01:48:20;96214.16;;;14.29;35.69
44079;BME280;29744;49.078;12.878;2023-12-20T01:53:23;96214.47;;;14.27;35.19
44079;BME280;29744;49.078;12.878;2023-12-20T01:58:26;96197.50;;;14.27;35.66
44079;BME280;29744;49.078;12.878;2023-12-20T02:03:26;96190.06;;;14.24;35.72
44079;BME280;29744;49.078;12.878;2023-12-20T02:08:27;96185.78;;;14.23;35.62
44079;BME280;29744;49.078;12.878;2023-12-20T02:13:27;96166.13;;;14.22;35.86
44079;BME280;29744;49.078;12.878;2023-12-20T02:18:27;96167.19;;;14.21;35.67
44079;BME280;29744;49.078;12.878;2023-12-20T02:23:28;96141.69;;;14.18;35.65
44079;BME280;29744;49.078;12.878;2023-12-20T02:28:28;96136.28;;;14.18;35.39
44079;BME280;29744;49.078;12.878;2023-12-20T02:33:29;96128.53;;;14.17;35.75
44079;BME280;29744;49.078;12.878;2023-12-20T02:38:29;96133.13;;;14.16;35.69
44079;BME280;29744;49.078;12.878;2023-12-20T02:43:30;96135.03;;;14.16;35.34
44079;BME280;29744;49.078;12.878;2023-12-20T02:48:30;96123.78;;;14.14;35.74
44079;BME280;29744;49.078;12.878;2023-12-20T02:53:30;96132.66;;;14.14;35.82
44079;BME280;29744;49.078;12.878;2023-12-20T02:58:31;96123.31;;;14.12;35.48
44079;BME280;29744;49.078;12.878;2023-12-20T03:03:32;96121.75;;;14.11;35.67
44079;BME280;29744;49.078;12.878;2023-12-20T03:08:32;96120.16;;;14.10;35.65
44079;BME280;29744;49.078;12.878;2023-12-20T03:13:32;96118.59;;;14.09;35.95
44079;BME280;29744;49.078;12.878;2023-12-20T03:18:33;96098.13;;;14.08;35.97
44079;BME280;29744;49.078;12.878;2023-12-20T03:23:33;96099.25;;;14.07;35.58
44079;BME280;29744;49.078;12.878;2023-12-20T03:28:34;96099.56;;;14.05;35.49
44079;BME280;29744;49.078;12.878;2023-12-20T03:33:34;96087.22;;;14.04;35.63
44079;BME280;29744;49.078;12.878;2023-12-20T03:38:34;96081.03;;;14.04;35.93
44079;BME280;29744;49.078;12.878;2023-12-20T03:43:35;96102.59;;;14.04;35.78
44079;BME280;29744;49.078;12.878;2023-12-20T03:48:35;96086.75;;;14.02;35.93
44079;BME280;29744;49.078;12.878;2023-12-20T03:53:35;96083.28;;;14.02;35.81
44079;BME280;29744;49.078;12.878;2023-12-20T03:58:36;96091.69;;;14.00;35.83
44079;BME280;29744;49.078;12.878;2023-12-20T04:03:36;96087.41;;;13.99;35.73
44079;BME280;29744;49.078;12.878;2023-12-20T04:08:36;96092.81;;;13.99;35.67
44079;BME280;29744;49.078;12.878;2023-12-20T04:13:36;96082.66;;;13.96;35.71
44079;BME280;29744;49.078;12.878;2023-12-20T04:18:37;96085.38;;;13.96;35.74
44079;BME280;29744;49.078;12.878;2023-12-20T04:23:37;96088.41;;;13.95;35.92
44079;BME280;29744;49.078;12.878;2023-12-20T04:28:37;96094.91;;;13.94;35.65
44079;BME280;29744;49.078;12.878;2023-12-20T04:33:38;96099.50;;;13.93;35.90
44079;BME280;29744;49.078;12.878;2023-12-20T04:38:38;96110.28;;;13.93;35.98
44079;BME280;29744;49.078;12.878;2023-12-20T04:43:38;96115.34;;;13.95;35.82
44079;BME280;29744;49.078;12.878;2023-12-20T04:48:39;96120.09;;;13.98;36.09
44079;BME280;29744;49.078;12.878;2023-12-20T04:53:39;96124.50;;;14.02;36.15
44079;BME280;29744;49.078;12.878;2023-12-20T04:58:39;96107.34;;;14.07;36.07
44079;BME280;29744;49.078;12.878;2023-12-20T05:03:40;96116.47;;;14.14;36.21
44079;BME280;29744;49.078;12.878;2023-12-20T05:08:40;96112.19;;;14.22;36.26
44079;BME280;29744;49.078;12.878;2023-12-20T05:13:41;96116.84;;;14.34;36.45
44079;BME280;29744;49.078;12.878;2023-12-20T05:18:41;96117.22;;;14.44;36.16
44079;BME280;29744;49.078;12.878;2023-12-20T05:23:41;96128.88;;;14.57;36.21
44079;BME280;29744;49.078;12.878;2023-12-20T05:28:42;96120.81;;;14.69;36.23
44079;BME280;29744;49.078;12.878;2023-12-20T05:33:42;96130.22;;;14.84;35.69
44079;BME280;29744;49.078;12.878;2023-12-20T05:38:42;96135.31;;;14.98;35.76
44079;BME280;29744;49.078;12.878;2023-12-20T05:43:43;96147.75;;;15.11;35.89
44079;BME280;29744;49.078;12.878;2023-12-20T05:48:43;96150.94;;;15.25;35.62
44079;BME280;29744;49.078;12.878;2023-12-20T05:53:44;96155.56;;;15.37;35.32
44079;BME280;29744;49.078;12.878;2023-12-20T05:58:44;96157.84;;;15.47;35.61
44079;BME280;29744;49.078;12.878;2023-12-20T06:03:45;96159.66;;;15.55;35.08
44079;BME280;29744;49.078;12.878;2023-12-20T06:08:48;96177.69;;;15.63;34.92
44079;BME280;29744;49.078;12.878;2023-12-20T06:13:48;96168.22;;;15.69;34.91
44079;BME280;29744;49.078;12.878;2023-12-20T06:18:49;96179.59;;;15.75;34.96
44079;BME280;29744;49.078;12.878;2023-12-20T06:23:49;96180.84;;;15.77;35.20
44079;BME280;29744;49.078;12.878;2023-12-20T06:28:49;96192.13;;;15.80;34.97
44079;BME280;29744;49.078;12.878;2023-12-20T06:33:50;96193.38;;;15.82;35.07
44079;BME280;29744;49.078;12.878;2023-12-20T06:38:57;96193.38;;;15.82;34.98
44079;BME280;29744;49.078;12.878;2023-12-20T06:43:58;96204.97;;;15.83;34.68
44079;BME280;29744;49.078;12.878;2023-12-20T06:48:58;96213.09;;;15.83;34.61
44079;BME280;29744;49.078;12.878;2023-12-20T06:53:58;96221.53;;;15.81;34.98
44079;BME280;29744;49.078;12.878;2023-12-20T06:59:00;96228.88;;;15.81;34.93
44079;BME280;29744;49.078;12.878;2023-12-20T07:04:00;96229.50;;;15.77;34.50
44079;BME280;29744;49.078;12.878;2023-12-20T07:09:00;96224.44;;;15.76;34.73
44079;BME280;29744;49.078;12.878;2023-12-20T07:14:01;96236.72;;;15.73;34.74
44079;BME280;29744;49.078;12.878;2023-12-20T07:19:01;96238.50;;;15.69;35.06
44079;BME280;29744;49.078;12.878;2023-12-20T07:24:01;96251.56;;;15.67;34.72
44079;BME280;29744;49.078;12.878;2023-12-20T07:29:02;96255.72;;;15.65;34.60
44079;BME280;29744;49.078;12.878;2023-12-20T07:34:03;96261.03;;;15.61;34.46
44079;BME280;29744;49.078;12.878;2023-12-20T07:39:03;96258.19;;;15.58;34.77
44079;BME280;29744;49.078;12.878;2023-12-20T07:44:04;96279.38;;;15.56;34.75
44079;BME280;29744;49.078;12.878;2023-12-20T07:49:04;96280.38;;;15.51;34.59
44079;BME280;29744;49.078;12.878;2023-12-20T07:54:05;96282.59;;;15.49;34.79
44079;BME280;29744;49.078;12.878;2023-12-20T07:59:05;96290.59;;;15.45;34.66
44079;BME280;29744;49.078;12.878;2023-12-20T08:04:06;96286.66;;;15.43;34.91
44079;BME280;29744;49.078;12.878;2023-12-20T08:09:06;96293.03;;;15.38;35.05
44079;BME280;29744;49.078;12.878;2023-12-20T08:14:06;96299.91;;;15.36;34.63
44079;BME280;29744;49.078;12.878;2023-12-20T08:19:07;96304.84;;;15.34;34.72
44079;BME280;29744;49.078;12.878;2023-12-20T08:24:07;96310.91;;;15.31;34.85
44079;BME280;29744;49.078;12.878;2023-12-20T08:29:08;96318.56;;;15.29;34.87
44079;BME280;29744;49.078;12.878;2023-12-20T08:34:08;96318.88;;;15.27;34.35
44079;BME280;29744;49.078;12.878;2023-12-20T08:39:08;96321.47;;;15.24;34.73
44079;BME280;29744;49.078;12.878;2023-12-20T08:44:09;96324.50;;;15.22;34.45
44079;BME280;29744;49.078;12.878;2023-12-20T08:49:10;96325.94;;;15.20;34.77
44079;BME280;29744;49.078;12.878;2023-12-20T08:54:10;96306.56;;;15.18;34.46
44079;BME280;29744;49.078;12.878;2023-12-20T08:59:10;96306.91;;;15.16;34.65
44079;BME280;29744;49.078;12.878;2023-12-20T09:04:12;96306.44;;;15.14;34.81
44079;BME280;29744;49.078;12.878;2023-12-20T09:09:12;96307.91;;;15.11;34.76
44079;BME280;29744;49.078;12.878;2023-12-20T09:14:14;96310.94;;;15.10;34.88
44079;BME280;29744;49.078;12.878;2023-12-20T09:19:14;96311.59;;;15.07;34.47
44079;BME280;29744;49.078;12.878;2023-12-20T09:24:15;96303.81;;;15.05;34.91
44079;BME280;29744;49.078;12.878;2023-12-20T09:29:15;96303.03;;;15.05;34.70
44079;BME280;29744;49.078;12.878;2023-12-20T09:34:17;96310.00;;;15.06;35.05
44079;BME280;29744;49.078;12.878;2023-12-20T09:39:18;96312.38;;;15.07;34.83
44079;BME280;29744;49.078;12.878;2023-12-20T09:44:19;96305.06;;;15.08;35.00
44079;BME280;29744;49.078;12.878;2023-12-20T09:49:20;96310.13;;;15.09;34.76
44079;BME280;29744;49.078;12.878;2023-12-20T09:54:22;96308.69;;;15.12;35.17
44079;BME280;29744;49.078;12.878;2023-12-20T09:59:22;96301.38;;;15.12;34.94
44079;BME280;29744;49.078;12.878;2023-12-20T10:04:23;96290.25;;;15.14;34.86
44079;BME280;29744;49.078;12.878;2023-12-20T10:09:23;96291.81;;;15.15;34.89
44079;BME280;29744;49.078;12.878;2023-12-20T10:14:24;96284.19;;;15.17;34.71
44079;BME280;29744;49.078;12.878;2023-12-20T10:19:25;96289.59;;;15.17;34.61
44079;BME280;29744;49.078;12.878;2023-12-20T10:24:28;96279.91;;;15.16;35.00
44079;BME280;29744;49.078;12.878;2023-12-20T10:29:32;96272.13;;;15.14;34.88
44079;BME280;29744;49.078;12.878;2023-12-20T10:34:32;96266.25;;;15.12;34.56
44079;BME280;29744;49.078;12.878;2023-12-20T10:39:33;96282.00;;;15.10;34.52
44079;BME280;29744;49.078;12.878;2023-12-20T10:44:33;96275.34;;;15.08;34.45
44079;BME280;29744;49.078;12.878;2023-12-20T10:49:36;96265.69;;;15.07;34.54
44079;BME280;29744;49.078;12.878;2023-12-20T10:54:36;96272.19;;;15.06;34.12
44079;BME280;29744;49.078;12.878;2023-12-20T10:59:37;96266.34;;;15.04;34.37
44079;BME280;29744;49.078;12.878;2023-12-20T11:05:06;96256.66;;;15.03;34.46
44079;BME280;29744;49.078;12.878;2023-12-20T11:15:16;96255.25;;;14.97;34.28
44079;BME280;29744;49.078;12.878;2023-12-20T11:20:17;96253.66;;;14.96;34.45
44079;BME280;29744;49.078;12.878;2023-12-20T11:25:17;96256.69;;;14.94;34.66
44079;BME280;29744;49.078;12.878;2023-12-20T11:30:17;96262.44;;;14.93;34.29
44079;BME280;29744;49.078;12.878;2023-12-20T11:35:20;96245.75;;;14.91;34.16
44079;BME280;29744;49.078;12.878;2023-12-20T11:40:23;96237.66;;;14.91;34.39
44079;BME280;29744;49.078;12.878;2023-12-20T11:45:24;96230.69;;;14.90;34.11
44079;BME280;29744;49.078;12.878;2023-12-20T11:50:25;96220.22;;;14.88;34.54
44079;BME280;29744;49.078;12.878;2023-12-20T11:55:25;96209.75;;;14.87;34.08
44079;BME280;29744;49.078;12.878;2023-12-20T12:00:26;96227.84;;;14.86;34.09
44079;BME280;29744;49.078;12.878;2023-12-20T12:05:26;96226.28;;;14.85;34.33
44079;BME280;29744;49.078;12.878;2023-12-20T12:10:27;96239.00;;;14.85;34.12
44079;BME280;29744;49.078;12.878;2023-12-20T12:15:27;96219.63;;;14.82;34.18
44079;BME280;29744;49.078;12.878;2023-12-20T12:20:27;96214.22;;;14.82;34.47
44079;BME280;29744;49.078;12.878;2023-12-20T12:25:33;96202.66;;;14.82;33.94
44079;BME280;29744;49.078;12.878;2023-12-20T12:30:34;96208.84;;;14.82;34.55
44079;BME280;29744;49.078;12.878;2023-12-20T12:35:35;96208.50;;;14.84;34.03
44079;BME280;29744;49.078;12.878;2023-12-20T12:40:36;96218.03;;;14.81;34.15
44079;BME280;29744;49.078;12.878;2023-12-20T12:45:36;96221.06;;;14.80;34.77
44079;BME280;29744;49.078;12.878;2023-12-20T12:50:37;96221.41;;;14.78;34.30
44079;BME280;29744;49.078;12.878;2023-12-20T12:55:37;96215.56;;;14.76;34.80
44079;BME280;29744;49.078;12.878;2023-12-20T13:00:37;96204.63;;;14.73;34.47
44079;BME280;29744;49.078;12.878;2023-12-20T13:05:38;96211.13;;;14.72;34.50
44079;BME280;29744;49.078;12.878;2023-12-20T13:10:38;96213.06;;;14.71;34.73
44079;BME280;29744;49.078;12.878;2023-12-20T13:15:38;96203.69;;;14.69;34.86
44079;BME280;29744;49.078;12.878;2023-12-20T13:20:39;96207.19;;;14.69;34.61
44079;BME280;29744;49.078;12.878;2023-12-20T13:25:41;96201.34;;;14.67;34.82
44079;BME280;29744;49.078;12.878;2023-12-20T13:30:41;96209.75;;;14.66;34.76
44079;BME280;29744;49.078;12.878;2023-12-20T13:35:42;96215.50;;;14.64;34.59
44079;BME280;29744;49.078;12.878;2023-12-20T13:40:42;96214.25;;;14.62;34.62
44079;BME280;29744;49.078;12.878;2023-12-20T13:45:42;96207.25;;;14.61;35.24
44079;BME280;29744;49.078;12.878;2023-12-20T13:50:42;96206.00;;;14.58;35.34
44079;BME280;29744;49.078;12.878;2023-12-20T13:55:43;96202.84;;;14.56;35.08
44079;BME280;29744;49.078;12.878;2023-12-20T14:00:43;96213.19;;;14.54;35.42
44079;BME280;29744;49.078;12.878;2023-12-20T14:05:43;96208.91;;;14.53;34.95
44079;BME280;29744;49.078;12.878;2023-12-20T14:10:44;96219.22;;;14.51;34.82
44079;BME280;29744;49.078;12.878;2023-12-20T14:15:44;96233.06;;;14.49;35.15
44079;BME280;29744;49.078;12.878;2023-12-20T14:20:44;96236.09;;;14.48;34.94
44079;BME280;29744;49.078;12.878;2023-12-20T14:25:47;96242.59;;;14.47;35.34
44079;BME280;29744;49.078;12.878;2023-12-20T14:30:48;96228.66;;;14.45;34.91
44079;BME280;29744;49.078;12.878;2023-12-20T14:35:49;96212.00;;;14.43;35.12
44079;BME280;29744;49.078;12.878;2023-12-20T14:40:49;96218.84;;;14.40;35.08
44079;BME280;29744;49.078;12.878;2023-12-20T14:45:50;96211.06;;;14.39;35.53
44079;BME280;29744;49.078;12.878;2023-12-20T14:50:51;96225.66;;;14.38;35.35
44079;BME280;29744;49.078;12.878;2023-12-20T14:55:52;96215.53;;;14.35;33.81
44079;BME280;29744;49.078;12.878;2023-12-20T15:00:52;96213.25;;;14.16;32.91
44079;BME280;29744;49.078;12.878;2023-12-20T15:05:53;96217.00;;;13.94;32.97
44079;BME280;29744;49.078;12.878;2023-12-20T15:10:53;96206.59;;;13.84;32.70
44079;BME280;29744;49.078;12.878;2023-12-20T15:15:53;96194.06;;;13.79;33.24
44079;BME280;29744;49.078;12.878;2023-12-20T15:20:54;96205.47;;;13.76;33.05
44079;BME280;29744;49.078;12.878;2023-12-20T15:25:54;96183.91;;;13.76;33.63
44079;BME280;29744;49.078;12.878;2023-12-20T15:30:55;96185.50;;;13.77;33.49
44079;BME280;29744;49.078;12.878;2023-12-20T15:35:56;96177.41;;;13.77;33.59
44079;BME280;29744;49.078;12.878;2023-12-20T15:40:57;96181.69;;;13.78;33.78
44079;BME280;29744;49.078;12.878;2023-12-20T15:45:57;96159.00;;;13.79;33.47
44079;BME280;29744;49.078;12.878;2023-12-20T15:50:57;96173.28;;;13.80;33.86
44079;BME280;29744;49.078;12.878;2023-12-20T15:55:58;96176.47;;;13.82;34.21
44079;BME280;29744;49.078;12.878;2023-12-20T16:00:59;96188.84;;;13.83;34.30
44079;BME280;29744;49.078;12.878;2023-12-20T16:05:59;96192.00;;;13.85;33.75
44079;BME280;29744;49.078;12.878;2023-12-20T16:11:00;96207.06;;;13.86;34.38
44079;BME280;29744;49.078;12.878;2023-12-20T16:16:04;96218.78;;;13.90;34.16
44079;BME280;29744;49.078;12.878;2023-12-20T16:21:04;96215.09;;;13.95;34.02
44079;BME280;29744;49.078;12.878;2023-12-20T16:26:05;96221.88;;;14.01;34.31
44079;BME280;29744;49.078;12.878;2023-12-20T16:31:05;96225.97;;;14.07;34.58
44079;BME280;29744;49.078;12.878;2023-12-20T16:36:06;96218.97;;;14.14;34.44
44079;BME280;29744;49.078;12.878;2023-12-20T16:41:06;96228.63;;;14.24;34.57
44079;BME280;29744;49.078;12.878;2023-12-20T16:46:06;96238.69;;;14.36;34.50
44079;BME280;29744;49.078;12.878;2023-12-20T16:51:08;96232.59;;;14.47;34.13
44079;BME280;29744;49.078;12.878;2023-12-20T16:56:11;96243.13;;;14.61;34.31
44079;BME280;29744;49.078;12.878;2023-12-20T17:01:11;96231.28;;;14.74;34.48
44079;BME280;29744;49.078;12.878;2023-12-20T17:06:13;96222.13;;;14.88;34.36
44079;BME280;29744;49.078;12.878;2023-12-20T17:11:14;96225.34;;;15.02;34.27
44079;BME280;29744;49.078;12.878;2023-12-20T17:16:14;96213.03;;;15.13;34.57
44079;BME280;29744;49.078;12.878;2023-12-20T17:21:15;96195.28;;;15.24;34.00
44079;BME280;29744;49.078;12.878;2023-12-20T17:26:16;96190.56;;;15.33;34.09
44079;BME280;29744;49.078;12.878;2023-12-20T17:31:16;96185.41;;;15.40;33.96
44079;BME280;29744;49.078;12.878;2023-12-20T17:36:17;96191.84;;;15.48;34.00
44079;BME280;29744;49.078;12.878;2023-12-20T17:41:17;96204.34;;;15.53;34.04
44079;BME280;29744;49.078;12.878;2023-12-20T17:46:17;96198.72;;;15.58;33.88
44079;BME280;29744;49.078;12.878;2023-12-20T17:51:18;96220.03;;;15.59;34.16
44079;BME280;29744;49.078;12.878;2023-12-20T17:56:18;96220.94;;;15.63;33.81
44079;BME280;29744;49.078;12.878;2023-12-20T18:01:18;96229.81;;;15.64;34.08
44079;BME280;29744;49.078;12.878;2023-12-20T18:06:19;96227.91;;;15.64;33.54
44079;BME280;29744;49.078;12.878;2023-12-20T18:11:19;96222.50;;;15.64;33.95
44079;BME280;29744;49.078;12.878;2023-12-20T18:16:20;96227.13;;;15.64;33.91
44079;BME280;29744;49.078;12.878;2023-12-20T18:21:20;96219.34;;;15.62;34.02
44079;BME280;29744;49.078;12.878;2023-12-20T18:26:20;96220.47;;;15.61;34.00
44079;BME280;29744;49.078;12.878;2023-12-20T18:31:21;96225.44;;;15.59;33.92
44079;BME280;29744;49.078;12.878;2023-12-20T18:36:21;96226.56;;;15.58;33.55
44079;BME280;29744;49.078;12.878;2023-12-20T18:41:21;96241.53;;;15.56;33.62
44079;BME280;29744;49.078;12.878;2023-12-20T18:46:22;96260.78;;;15.54;33.52
44079;BME280;29744;49.078;12.878;2023-12-20T18:51:24;96261.44;;;15.51;33.45
44079;BME280;29744;49.078;12.878;2023-12-20T18:56:25;96262.91;;;15.49;33.92
44079;BME280;29744;49.078;12.878;2023-12-20T19:01:25;96261.31;;;15.48;34.00
44079;BME280;29744;49.078;12.878;2023-12-20T19:06:25;96240.03;;;15.46;34.08
44079;BME280;29744;49.078;12.878;2023-12-20T19:11:26;96246.56;;;15.45;33.70
44079;BME280;29744;49.078;12.878;2023-12-20T19:16:26;96246.91;;;15.43;33.87
44079;BME280;29744;49.078;12.878;2023-12-20T19:21:26;96236.09;;;15.43;34.14
44079;BME280;29744;49.078;12.878;2023-12-20T19:26:27;96251.50;;;15.43;34.20
44079;BME280;29744;49.078;12.878;2023-12-20T19:31:27;96249.94;;;15.42;33.71
44079;BME280;29744;49.078;12.878;2023-12-20T19:36:27;96241.03;;;15.41;33.64
44079;BME280;29744;49.078;12.878;2023-12-20T19:41:28;96243.41;;;15.43;33.68
44079;BME280;29744;49.078;12.878;2023-12-20T19:46:28;96242.63;;;15.42;33.94
44079;BME280;29744;49.078;12.878;2023-12-20T19:51:29;96228.31;;;15.42;33.61
44079;BME280;29744;49.078;12.878;2023-12-20T19:56:29;96232.94;;;15.41;33.83
44079;BME280;29744;49.078;12.878;2023-12-20T20:01:30;96228.66;;;15.40;34.22
44079;BME280;29744;49.078;12.878;2023-12-20T20:06:30;96229.44;;;15.41;34.11
44079;BME280;29744;49.078;12.878;2023-12-20T20:11:30;96209.28;;;15.38;33.96
44079;BME280;29744;49.078;12.878;2023-12-20T20:16:31;96205.78;;;15.38;34.17
44079;BME280;29744;49.078;12.878;2023-12-20T20:21:31;96196.91;;;15.37;34.27
44079;BME280;29744;49.078;12.878;2023-12-20T20:26:31;96201.50;;;15.37;33.85
44079;BME280;29744;49.078;12.878;2023-12-20T20:31:32;96188.34;;;15.35;34.32
44079;BME280;29744;49.078;12.878;2023-12-20T20:36:34;96180.56;;;15.34;33.99
44079;BME280;29744;49.078;12.878;2023-12-20T20:41:34;96181.69;;;15.33;33.73
44079;BME280;29744;49.078;12.878;2023-12-20T20:46:34;96164.22;;;15.30;33.95
44079;BME280;29744;49.078;12.878;2023-12-20T20:51:35;96178.88;;;15.29;34.02
44079;BME280;29744;49.078;12.878;2023-12-20T20:56:35;96176.50;;;15.28;34.35
44079;BME280;29744;49.078;12.878;2023-12-20T21:01:36;96167.94;;;15.26;33.95
44079;BME280;29744;49.078;12.878;2023-12-20T21:06:36;96169.84;;;15.25;34.25
44079;BME280;29744;49.078;12.878;2023-12-20T21:11:37;96163.19;;;15.23;33.74
44079;BME280;29744;49.078;12.878;2023-12-20T21:16:37;96159.72;;;15.22;34.25
44079;BME280;29744;49.078;12.878;2023-12-20T21:21:39;96156.22;;;15.22;34.29
44079;BME280;29744;49.078;12.878;2023-12-20T21:26:39;96153.84;;;15.20;34.32
44079;BME280;29744;49.078;12.878;2023-12-20T21:31:39;96140.69;;;15.19;33.87
44079;BME280;29744;49.078;12.878;2023-12-20T21:36:40;96132.91;;;15.17;34.00
44079;BME280;29744;49.078;12.878;2023-12-20T21:41:42;96125.16;;;15.16;33.88
44079;BME280;29744;49.078;12.878;2023-12-20T21:46:43;96118.16;;;15.14;34.41
44079;BME280;29744;49.078;12.878;2023-12-20T21:51:44;96125.03;;;15.12;34.23
44079;BME280;29744;49.078;12.878;2023-12-20T21:56:44;96122.66;;;15.10;34.37
44079;BME280;29744;49.078;12.878;2023-12-20T22:01:44;96109.03;;;15.07;34.49
44079;BME280;29744;49.078;12.878;2023-12-20T22:06:45;96124.78;;;15.05;34.00
44079;BME280;29744;49.078;12.878;2023-12-20T22:11:45;96125.91;;;15.04;34.22
44079;BME280;29744;49.078;12.878;2023-12-20T22:16:45;96123.53;;;15.02;34.32
44079;BME280;29744;49.078;12.878;2023-12-20T22:21:46;96126.53;;;15.01;34.09
44079;BME280;29744;49.078;12.878;2023-12-20T22:26:46;96113.72;;;14.98;34.36
44079;BME280;29744;49.078;12.878;2023-12-20T22:31:47;96100.53;;;14.96;34.57
44079;BME280;29744;49.078;12.878;2023-12-20T22:36:48;96087.03;;;14.96;34.09
44079;BME280;29744;49.078;12.878;2023-12-20T22:41:48;96088.50;;;14.94;34.32
44079;BME280;29744;49.078;12.878;2023-12-20T22:46:48;96072.63;;;14.92;34.66
44079;BME280;29744;49.078;12.878;2023-12-20T22:51:49;96052.50;;;14.90;34.42
44079;BME280;29744;49.078;12.878;2023-12-20T22:56:49;96051.25;;;14.87;34.12
44079;BME280;29744;49.078;12.878;2023-12-20T23:01:54;96051.59;;;14.86;34.66
44079;BME280;29744;49.078;12.878;2023-12-20T23:06:54;96037.63;;;14.83;34.48
44079;BME280;29744;49.078;12.878;2023-12-20T23:11:54;96032.56;;;14.82;34.50
44079;BME280;29744;49.078;12.878;2023-12-20T23:16:55;96036.72;;;14.79;34.22
44079;BME280;29744;49.078;12.878;2023-12-20T23:21:55;96019.75;;;14.79;34.26
44079;BME280;29744;49.078;12.878;2023-12-20T23:26:56;96027.38;;;14.77;34.27
44079;BME280;29744;49.078;12.878;2023-12-20T23:31:57;96002.63;;;14.75;34.71
44079;BME280;29744;49.078;12.878;2023-12-20T23:36:57;96000.59;;;14.72;34.72
44079;BME280;29744;49.078;12.878;2023-12-20T23:41:57;95997.13;;;14.71;34.63
44079;BME280;29744;49.078;12.878;2023-12-20T23:46:58;95971.59;;;14.69;34.50
44079;BME280;29744;49.078;12.878;2023-12-20T23:51:58;95971.91;;;14.67;34.64
44079;BME280;29744;49.078;12.878;2023-12-20T23:56:59;95960.69;;;14.65;34.55
